sensor_id;sensor_type;location;lat;lon;timestamp;P1;durP1;ratioP1;P2;durP2;ratioP2
37305;SDS011;23193;42.656;21.170;2022-10-17T00:02:06;60.75;;;27.83;;
37305;SDS011;23193;42.656;21.170;2022-10-17T00:04:32;57.15;;;27.50;;
37305;SDS011;23193;42.656;21.170;2022-10-17T00:06:58;66.63;;;28.90;;
37305;SDS011;23193;42.656;21.170;2022-10-17T00:09:24;62.80;;;28.40;;
37305;SDS011;23193;42.656;21.170;2022-10-17T00:11:50;57.47;;;26.92;;
37305;SDS011;23193;42.656;21.170;2022-10-17T00:14:16;51.05;;;25.92;;
37305;SDS011;23193;42.656;21.170;2022-10-17T00:16:42;51.22;;;24.38;;
37305;SDS011;23193;42.656;21.170;2022-10-17T00:19:08;47.00;;;26.15;;
37305;SDS011;23193;42.656;21.170;2022-10-17T00:21:34;54.13;;;25.77;;
37305;SDS011;23193;42.656;21.170;2022-10-17T00:24:01;56.00;;;26.27;;
37305;SDS011;23193;42.656;21.170;2022-10-17T00:26:27;54.70;;;26.45;;
37305;SDS011;23193;42.656;21.170;2022-10-17T00:28:53;48.63;;;25.63;;
37305;SDS011;23193;42.656;21.170;2022-10-17T00:31:20;44.15;;;24.98;;
37305;SDS011;23193;42.656;21.170;2022-10-17T00:33:47;42.92;;;23.60;;
37305;SDS011;23193;42.656;21.170;2022-10-17T00:36:17;50.22;;;23.27;;
37305;SDS011;23193;42.656;21.170;2022-10-17T00:38:45;42.72;;;22.77;;
37305;SDS011;23193;42.656;21.170;2022-10-17T00:41:12;44.65;;;19.92;;
37305;SDS011;23193;42.656;21.170;2022-10-17T00:46:24;37.95;;;19.25;;
37305;SDS011;23193;42.656;21.170;2022-10-17T00:48:51;45.90;;;21.02;;
37305;SDS011;23193;42.656;21.170;2022-10-17T00:51:18;43.20;;;21.42;;
37305;SDS011;23193;42.656;21.170;2022-10-17T00:53:45;50.30;;;22.50;;
37305;SDS011;23193;42.656;21.170;2022-10-17T00:56:11;41.63;;;21.80;;
37305;SDS011;23193;42.656;21.170;2022-10-17T00:58:37;54.95;;;22.88;;
37305;SDS011;23193;42.656;21.170;2022-10-17T01:01:03;39.78;;;21.70;;
37305;SDS011;23193;42.656;21.170;2022-10-17T01:03:29;43.97;;;22.52;;
37305;SDS011;23193;42.656;21.170;2022-10-17T01:05:55;41.47;;;21.65;;
37305;SDS011;23193;42.656;21.170;2022-10-17T01:08:22;43.58;;;22.50;;
37305;SDS011;23193;42.656;21.170;2022-10-17T01:10:52;48.92;;;22.98;;
37305;SDS011;23193;42.656;21.170;2022-10-17T01:14:05;47.13;;;21.73;;
37305;SDS011;23193;42.656;21.170;2022-10-17T01:23:43;49.00;;;22.30;;
37305;SDS011;23193;42.656;21.170;2022-10-17T01:31:47;53.00;;;24.75;;
37305;SDS011;23193;42.656;21.170;2022-10-17T01:36:48;41.60;;;22.83;;
37305;SDS011;23193;42.656;21.170;2022-10-17T01:41:47;41.67;;;22.75;;
37305;SDS011;23193;42.656;21.170;2022-10-17T01:44:18;49.55;;;23.38;;
37305;SDS011;23193;42.656;21.170;2022-10-17T01:46:48;43.97;;;22.63;;
37305;SDS011;23193;42.656;21.170;2022-10-17T01:49:15;41.47;;;22.95;;
37305;SDS011;23193;42.656;21.170;2022-10-17T01:51:47;45.60;;;22.85;;
37305;SDS011;23193;42.656;21.170;2022-10-17T01:54:16;41.42;;;23.25;;
37305;SDS011;23193;42.656;21.170;2022-10-17T01:56:43;41.67;;;22.42;;
37305;SDS011;23193;42.656;21.170;2022-10-17T01:59:12;43.50;;;22.40;;
37305;SDS011;23193;42.656;21.170;2022-10-17T02:01:40;52.95;;;23.23;;
37305;SDS011;23193;42.656;21.170;2022-10-17T02:04:06;45.30;;;22.73;;
37305;SDS011;23193;42.656;21.170;2022-10-17T02:06:34;36.13;;;21.63;;
37305;SDS011;23193;42.656;21.170;2022-10-17T02:09:00;38.35;;;21.55;;
37305;SDS011;23193;42.656;21.170;2022-10-17T02:11:27;43.42;;;21.42;;
37305;SDS011;23193;42.656;21.170;2022-10-17T02:14:13;37.75;;;21.33;;
37305;SDS011;23193;42.656;21.170;2022-10-17T02:22:03;36.90;;;20.40;;
37305;SDS011;23193;42.656;21.170;2022-10-17T02:34:56;28.90;;;15.55;;
37305;SDS011;23193;42.656;21.170;2022-10-17T02:37:24;26.73;;;16.00;;
37305;SDS011;23193;42.656;21.170;2022-10-17T02:39:52;37.22;;;15.77;;
37305;SDS011;23193;42.656;21.170;2022-10-17T02:42:19;24.17;;;13.98;;
37305;SDS011;23193;42.656;21.170;2022-10-17T02:44:46;35.13;;;15.88;;
37305;SDS011;23193;42.656;21.170;2022-10-17T02:47:24;27.15;;;14.52;;
37305;SDS011;23193;42.656;21.170;2022-10-17T02:49:52;25.27;;;15.80;;
37305;SDS011;23193;42.656;21.170;2022-10-17T02:52:32;24.73;;;14.80;;
37305;SDS011;23193;42.656;21.170;2022-10-17T02:57:34;32.80;;;14.88;;
37305;SDS011;23193;42.656;21.170;2022-10-17T03:00:02;31.08;;;15.85;;
37305;SDS011;23193;42.656;21.170;2022-10-17T03:02:36;22.85;;;14.85;;
37305;SDS011;23193;42.656;21.170;2022-10-17T03:05:03;38.88;;;15.25;;
37305;SDS011;23193;42.656;21.170;2022-10-17T03:07:29;25.10;;;14.07;;
37305;SDS011;23193;42.656;21.170;2022-10-17T03:09:55;29.02;;;16.05;;
37305;SDS011;23193;42.656;21.170;2022-10-17T03:12:21;24.45;;;14.77;;
37305;SDS011;23193;42.656;21.170;2022-10-17T03:14:47;31.77;;;14.60;;
37305;SDS011;23193;42.656;21.170;2022-10-17T03:17:13;32.03;;;15.75;;
37305;SDS011;23193;42.656;21.170;2022-10-17T03:19:39;27.98;;;15.13;;
37305;SDS011;23193;42.656;21.170;2022-10-17T03:22:05;37.22;;;15.85;;
37305;SDS011;23193;42.656;21.170;2022-10-17T03:24:31;28.00;;;14.93;;
37305;SDS011;23193;42.656;21.170;2022-10-17T03:26:57;27.77;;;15.95;;
37305;SDS011;23193;42.656;21.170;2022-10-17T03:29:23;26.50;;;15.43;;
37305;SDS011;23193;42.656;21.170;2022-10-17T03:31:49;32.30;;;15.18;;
37305;SDS011;23193;42.656;21.170;2022-10-17T03:34:15;30.42;;;15.65;;
37305;SDS011;23193;42.656;21.170;2022-10-17T03:36:42;39.17;;;15.32;;
37305;SDS011;23193;42.656;21.170;2022-10-17T03:39:08;28.60;;;15.10;;
37305;SDS011;23193;42.656;21.170;2022-10-17T03:41:34;35.38;;;16.77;;
37305;SDS011;23193;42.656;21.170;2022-10-17T03:44:00;28.02;;;15.27;;
37305;SDS011;23193;42.656;21.170;2022-10-17T03:46:26;29.38;;;15.88;;
37305;SDS011;23193;42.656;21.170;2022-10-17T03:48:52;31.52;;;16.63;;
37305;SDS011;23193;42.656;21.170;2022-10-17T03:51:19;30.58;;;16.27;;
37305;SDS011;23193;42.656;21.170;2022-10-17T03:53:45;29.17;;;15.85;;
37305;SDS011;23193;42.656;21.170;2022-10-17T03:56:15;37.30;;;16.55;;
37305;SDS011;23193;42.656;21.170;2022-10-17T03:58:41;28.83;;;14.32;;
37305;SDS011;23193;42.656;21.170;2022-10-17T04:01:09;32.75;;;15.80;;
37305;SDS011;23193;42.656;21.170;2022-10-17T04:03:35;29.92;;;15.25;;
37305;SDS011;23193;42.656;21.170;2022-10-17T04:06:02;30.40;;;16.13;;
37305;SDS011;23193;42.656;21.170;2022-10-17T04:08:28;33.65;;;16.60;;
37305;SDS011;23193;42.656;21.170;2022-10-17T04:10:58;38.78;;;15.35;;
37305;SDS011;23193;42.656;21.170;2022-10-17T04:13:24;30.95;;;16.10;;
37305;SDS011;23193;42.656;21.170;2022-10-17T04:15:57;26.73;;;16.35;;
37305;SDS011;23193;42.656;21.170;2022-10-17T04:18:24;33.22;;;15.70;;
37305;SDS011;23193;42.656;21.170;2022-10-17T04:20:50;25.95;;;16.23;;
37305;SDS011;23193;42.656;21.170;2022-10-17T04:23:16;29.10;;;16.13;;
37305;SDS011;23193;42.656;21.170;2022-10-17T04:25:42;31.05;;;15.65;;
37305;SDS011;23193;42.656;21.170;2022-10-17T04:28:09;38.38;;;16.35;;
37305;SDS011;23193;42.656;21.170;2022-10-17T04:30:35;27.55;;;17.27;;
37305;SDS011;23193;42.656;21.170;2022-10-17T04:33:01;30.08;;;16.25;;
37305;SDS011;23193;42.656;21.170;2022-10-17T04:35:27;33.72;;;17.90;;
37305;SDS011;23193;42.656;21.170;2022-10-17T04:37:53;33.15;;;17.27;;
37305;SDS011;23193;42.656;21.170;2022-10-17T04:40:19;26.67;;;16.05;;
37305;SDS011;23193;42.656;21.170;2022-10-17T04:42:45;35.40;;;16.17;;
37305;SDS011;23193;42.656;21.170;2022-10-17T04:45:11;33.60;;;17.48;;
37305;SDS011;23193;42.656;21.170;2022-10-17T04:47:37;28.38;;;15.23;;
37305;SDS011;23193;42.656;21.170;2022-10-17T04:50:04;30.80;;;15.68;;
37305;SDS011;23193;42.656;21.170;2022-10-17T04:52:30;33.65;;;15.50;;
37305;SDS011;23193;42.656;21.170;2022-10-17T04:54:56;32.13;;;15.13;;
37305;SDS011;23193;42.656;21.170;2022-10-17T04:57:22;32.97;;;15.68;;
37305;SDS011;23193;42.656;21.170;2022-10-17T04:59:49;40.80;;;16.35;;
37305;SDS011;23193;42.656;21.170;2022-10-17T05:02:15;30.55;;;15.98;;
37305;SDS011;23193;42.656;21.170;2022-10-17T05:04:41;28.90;;;16.95;;
37305;SDS011;23193;42.656;21.170;2022-10-17T05:07:07;41.30;;;16.77;;
37305;SDS011;23193;42.656;21.170;2022-10-17T05:09:33;47.65;;;20.67;;
37305;SDS011;23193;42.656;21.170;2022-10-17T05:11:59;39.00;;;18.05;;
37305;SDS011;23193;42.656;21.170;2022-10-17T05:14:25;37.10;;;18.17;;
37305;SDS011;23193;42.656;21.170;2022-10-17T05:16:51;36.15;;;18.67;;
37305;SDS011;23193;42.656;21.170;2022-10-17T05:19:17;35.15;;;19.48;;
37305;SDS011;23193;42.656;21.170;2022-10-17T05:21:43;63.65;;;26.50;;
37305;SDS011;23193;42.656;21.170;2022-10-17T05:24:10;38.30;;;22.90;;
37305;SDS011;23193;42.656;21.170;2022-10-17T05:26:38;52.20;;;21.83;;
37305;SDS011;23193;42.656;21.170;2022-10-17T05:29:04;58.50;;;21.55;;
37305;SDS011;23193;42.656;21.170;2022-10-17T05:31:30;51.50;;;24.05;;
37305;SDS011;23193;42.656;21.170;2022-10-17T05:34:03;72.70;;;25.92;;
37305;SDS011;23193;42.656;21.170;2022-10-17T05:36:29;80.32;;;39.67;;
37305;SDS011;23193;42.656;21.170;2022-10-17T05:38:55;95.45;;;46.05;;
37305;SDS011;23193;42.656;21.170;2022-10-17T05:41:21;100.78;;;49.20;;
37305;SDS011;23193;42.656;21.170;2022-10-17T05:43:47;97.68;;;48.70;;
37305;SDS011;23193;42.656;21.170;2022-10-17T05:46:14;104.00;;;53.00;;
37305;SDS011;23193;42.656;21.170;2022-10-17T05:48:40;90.93;;;50.97;;
37305;SDS011;23193;42.656;21.170;2022-10-17T05:51:06;92.53;;;49.40;;
37305;SDS011;23193;42.656;21.170;2022-10-17T05:53:33;96.70;;;49.33;;
37305;SDS011;23193;42.656;21.170;2022-10-17T05:56:01;88.30;;;45.65;;
37305;SDS011;23193;42.656;21.170;2022-10-17T05:58:27;85.28;;;43.35;;
37305;SDS011;23193;42.656;21.170;2022-10-17T06:00:57;92.05;;;42.80;;
37305;SDS011;23193;42.656;21.170;2022-10-17T06:03:23;91.20;;;44.05;;
37305;SDS011;23193;42.656;21.170;2022-10-17T06:05:49;105.05;;;47.90;;
37305;SDS011;23193;42.656;21.170;2022-10-17T06:08:16;112.30;;;46.83;;
37305;SDS011;23193;42.656;21.170;2022-10-17T06:10:42;142.95;;;58.25;;
37305;SDS011;23193;42.656;21.170;2022-10-17T06:13:08;103.75;;;48.10;;
37305;SDS011;23193;42.656;21.170;2022-10-17T06:15:34;81.93;;;44.95;;
37305;SDS011;23193;42.656;21.170;2022-10-17T06:18:00;70.10;;;35.22;;
37305;SDS011;23193;42.656;21.170;2022-10-17T06:20:26;64.38;;;30.90;;
37305;SDS011;23193;42.656;21.170;2022-10-17T06:22:52;53.88;;;30.13;;
37305;SDS011;23193;42.656;21.170;2022-10-17T06:25:18;61.33;;;32.35;;
37305;SDS011;23193;42.656;21.170;2022-10-17T06:27:44;59.03;;;28.65;;
37305;SDS011;23193;42.656;21.170;2022-10-17T06:30:10;66.70;;;30.90;;
37305;SDS011;23193;42.656;21.170;2022-10-17T06:32:36;57.75;;;29.65;;
37305;SDS011;23193;42.656;21.170;2022-10-17T06:35:02;55.45;;;29.70;;
37305;SDS011;23193;42.656;21.170;2022-10-17T06:37:31;50.13;;;28.52;;
37305;SDS011;23193;42.656;21.170;2022-10-17T06:39:58;54.72;;;27.48;;
37305;SDS011;23193;42.656;21.170;2022-10-17T06:42:24;47.38;;;24.13;;
37305;SDS011;23193;42.656;21.170;2022-10-17T06:44:50;36.15;;;21.67;;
37305;SDS011;23193;42.656;21.170;2022-10-17T06:47:16;39.28;;;21.88;;
37305;SDS011;23193;42.656;21.170;2022-10-17T06:49:42;55.85;;;26.13;;
37305;SDS011;23193;42.656;21.170;2022-10-17T06:52:08;60.30;;;27.20;;
37305;SDS011;23193;42.656;21.170;2022-10-17T06:54:35;58.50;;;29.73;;
37305;SDS011;23193;42.656;21.170;2022-10-17T06:57:01;58.20;;;28.65;;
37305;SDS011;23193;42.656;21.170;2022-10-17T06:59:27;53.33;;;26.67;;
37305;SDS011;23193;42.656;21.170;2022-10-17T07:01:53;56.72;;;29.98;;
37305;SDS011;23193;42.656;21.170;2022-10-17T07:04:19;45.20;;;26.95;;
37305;SDS011;23193;42.656;21.170;2022-10-17T07:06:45;47.90;;;24.52;;
37305;SDS011;23193;42.656;21.170;2022-10-17T07:09:11;56.60;;;25.02;;
37305;SDS011;23193;42.656;21.170;2022-10-17T07:11:37;62.10;;;22.52;;
37305;SDS011;23193;42.656;21.170;2022-10-17T07:14:04;41.42;;;20.20;;
37305;SDS011;23193;42.656;21.170;2022-10-17T07:16:30;37.45;;;18.77;;
37305;SDS011;23193;42.656;21.170;2022-10-17T07:18:56;36.70;;;18.45;;
37305;SDS011;23193;42.656;21.170;2022-10-17T07:21:22;41.65;;;19.15;;
37305;SDS011;23193;42.656;21.170;2022-10-17T07:23:48;35.47;;;17.40;;
37305;SDS011;23193;42.656;21.170;2022-10-17T07:26:14;34.97;;;18.42;;
37305;SDS011;23193;42.656;21.170;2022-10-17T07:28:42;43.92;;;18.77;;
37305;SDS011;23193;42.656;21.170;2022-10-17T07:31:09;37.10;;;19.55;;
37305;SDS011;23193;42.656;21.170;2022-10-17T07:33:36;43.47;;;19.42;;
37305;SDS011;23193;42.656;21.170;2022-10-17T07:36:02;47.13;;;20.95;;
37305;SDS011;23193;42.656;21.170;2022-10-17T07:38:29;41.58;;;19.55;;
37305;SDS011;23193;42.656;21.170;2022-10-17T07:40:56;45.60;;;21.38;;
37305;SDS011;23193;42.656;21.170;2022-10-17T07:43:25;58.80;;;21.98;;
37305;SDS011;23193;42.656;21.170;2022-10-17T07:45:52;50.88;;;21.80;;
37305;SDS011;23193;42.656;21.170;2022-10-17T07:48:18;49.20;;;21.13;;
37305;SDS011;23193;42.656;21.170;2022-10-17T07:50:44;68.20;;;22.90;;
37305;SDS011;23193;42.656;21.170;2022-10-17T07:53:11;59.00;;;24.52;;
37305;SDS011;23193;42.656;21.170;2022-10-17T07:55:37;46.65;;;21.55;;
37305;SDS011;23193;42.656;21.170;2022-10-17T07:58:03;48.00;;;22.15;;
37305;SDS011;23193;42.656;21.170;2022-10-17T08:00:29;58.05;;;22.80;;
37305;SDS011;23193;42.656;21.170;2022-10-17T08:02:55;63.30;;;24.13;;
37305;SDS011;23193;42.656;21.170;2022-10-17T08:05:21;55.92;;;21.30;;
37305;SDS011;23193;42.656;21.170;2022-10-17T08:07:47;49.58;;;22.33;;
37305;SDS011;23193;42.656;21.170;2022-10-17T08:10:14;51.92;;;21.73;;
37305;SDS011;23193;42.656;21.170;2022-10-17T08:12:40;50.15;;;21.63;;
37305;SDS011;23193;42.656;21.170;2022-10-17T08:15:06;39.85;;;18.95;;
37305;SDS011;23193;42.656;21.170;2022-10-17T08:17:33;36.38;;;18.83;;
37305;SDS011;23193;42.656;21.170;2022-10-17T08:20:00;54.58;;;19.25;;
37305;SDS011;23193;42.656;21.170;2022-10-17T08:22:26;37.50;;;18.63;;
37305;SDS011;23193;42.656;21.170;2022-10-17T08:24:52;53.72;;;19.88;;
37305;SDS011;23193;42.656;21.170;2022-10-17T08:27:18;58.83;;;20.10;;
37305;SDS011;23193;42.656;21.170;2022-10-17T08:29:52;36.28;;;18.90;;
37305;SDS011;23193;42.656;21.170;2022-10-17T08:32:19;45.33;;;21.40;;
37305;SDS011;23193;42.656;21.170;2022-10-17T08:34:45;57.45;;;20.23;;
37305;SDS011;23193;42.656;21.170;2022-10-17T08:37:11;61.50;;;18.13;;
37305;SDS011;23193;42.656;21.170;2022-10-17T08:39:38;54.47;;;19.23;;
37305;SDS011;23193;42.656;21.170;2022-10-17T08:47:07;45.65;;;19.80;;
37305;SDS011;23193;42.656;21.170;2022-10-17T08:52:31;50.25;;;19.42;;
37305;SDS011;23193;42.656;21.170;2022-10-17T08:54:59;52.70;;;20.95;;
37305;SDS011;23193;42.656;21.170;2022-10-17T08:57:25;35.95;;;17.83;;
37305;SDS011;23193;42.656;21.170;2022-10-17T08:59:53;35.03;;;18.73;;
37305;SDS011;23193;42.656;21.170;2022-10-17T09:05:20;57.17;;;19.80;;
37305;SDS011;23193;42.656;21.170;2022-10-17T09:07:50;31.55;;;17.15;;
37305;SDS011;23193;42.656;21.170;2022-10-17T09:13:02;40.85;;;19.33;;
37305;SDS011;23193;42.656;21.170;2022-10-17T09:15:33;35.75;;;17.20;;
37305;SDS011;23193;42.656;21.170;2022-10-17T09:20:35;36.72;;;16.20;;
37305;SDS011;23193;42.656;21.170;2022-10-17T09:25:27;27.98;;;13.63;;
37305;SDS011;23193;42.656;21.170;2022-10-17T09:30:44;34.13;;;15.30;;
37305;SDS011;23193;42.656;21.170;2022-10-17T09:35:37;26.50;;;14.70;;
37305;SDS011;23193;42.656;21.170;2022-10-17T09:38:04;35.00;;;14.60;;
37305;SDS011;23193;42.656;21.170;2022-10-17T09:40:31;42.28;;;16.15;;
37305;SDS011;23193;42.656;21.170;2022-10-17T09:42:58;31.10;;;15.40;;
37305;SDS011;23193;42.656;21.170;2022-10-17T09:45:25;39.13;;;17.63;;
37305;SDS011;23193;42.656;21.170;2022-10-17T09:48:00;39.20;;;19.40;;
37305;SDS011;23193;42.656;21.170;2022-10-17T09:50:30;44.15;;;18.88;;
37305;SDS011;23193;42.656;21.170;2022-10-17T09:52:58;49.13;;;18.95;;
37305;SDS011;23193;42.656;21.170;2022-10-17T10:00:24;39.78;;;19.55;;
37305;SDS011;23193;42.656;21.170;2022-10-17T10:02:50;38.58;;;18.83;;
37305;SDS011;23193;42.656;21.170;2022-10-17T10:05:32;36.20;;;18.67;;
37305;SDS011;23193;42.656;21.170;2022-10-17T10:08:00;32.05;;;16.15;;
37305;SDS011;23193;42.656;21.170;2022-10-17T10:10:27;40.72;;;17.90;;
37305;SDS011;23193;42.656;21.170;2022-10-17T10:13:01;40.85;;;17.88;;
37305;SDS011;23193;42.656;21.170;2022-10-17T10:15:30;52.65;;;20.42;;
37305;SDS011;23193;42.656;21.170;2022-10-17T10:17:57;38.72;;;18.88;;
37305;SDS011;23193;42.656;21.170;2022-10-17T10:20:26;45.83;;;20.00;;
37305;SDS011;23193;42.656;21.170;2022-10-17T10:25:41;28.48;;;13.95;;
37305;SDS011;23193;42.656;21.170;2022-10-17T10:28:13;35.03;;;13.50;;
37305;SDS011;23193;42.656;21.170;2022-10-17T10:30:44;25.13;;;14.52;;
37305;SDS011;23193;42.656;21.170;2022-10-17T10:33:11;44.03;;;17.92;;
37305;SDS011;23193;42.656;21.170;2022-10-17T10:35:37;28.20;;;13.32;;
37305;SDS011;23193;42.656;21.170;2022-10-17T10:43:50;24.80;;;13.70;;
37305;SDS011;23193;42.656;21.170;2022-10-17T10:46:21;23.55;;;13.32;;
37305;SDS011;23193;42.656;21.170;2022-10-17T10:48:49;36.33;;;14.52;;
37305;SDS011;23193;42.656;21.170;2022-10-17T10:51:15;31.75;;;13.32;;
37305;SDS011;23193;42.656;21.170;2022-10-17T10:53:51;24.45;;;11.73;;
37305;SDS011;23193;42.656;21.170;2022-10-17T10:56:20;24.95;;;9.23;;
37305;SDS011;23193;42.656;21.170;2022-10-17T11:06:42;22.55;;;9.88;;
37305;SDS011;23193;42.656;21.170;2022-10-17T11:11:39;32.47;;;10.32;;
37305;SDS011;23193;42.656;21.170;2022-10-17T11:14:15;14.00;;;7.65;;
37305;SDS011;23193;42.656;21.170;2022-10-17T11:16:46;20.23;;;7.50;;
37305;SDS011;23193;42.656;21.170;2022-10-17T11:19:27;13.45;;;7.35;;
37305;SDS011;23193;42.656;21.170;2022-10-17T11:22:08;17.60;;;7.68;;
37305;SDS011;23193;42.656;21.170;2022-10-17T11:24:37;23.73;;;8.32;;
37305;SDS011;23193;42.656;21.170;2022-10-17T11:27:05;12.55;;;6.97;;
37305;SDS011;23193;42.656;21.170;2022-10-17T11:29:32;17.33;;;6.45;;
37305;SDS011;23193;42.656;21.170;2022-10-17T11:32:02;17.20;;;6.88;;
37305;SDS011;23193;42.656;21.170;2022-10-17T11:34:31;9.68;;;6.40;;
37305;SDS011;23193;42.656;21.170;2022-10-17T11:37:10;15.05;;;6.53;;
37305;SDS011;23193;42.656;21.170;2022-10-17T11:39:43;12.18;;;6.85;;
37305;SDS011;23193;42.656;21.170;2022-10-17T11:42:16;17.00;;;5.93;;
37305;SDS011;23193;42.656;21.170;2022-10-17T11:44:43;12.38;;;6.40;;
37305;SDS011;23193;42.656;21.170;2022-10-17T11:50:02;13.23;;;5.60;;
37305;SDS011;23193;42.656;21.170;2022-10-17T11:52:36;17.08;;;6.88;;
37305;SDS011;23193;42.656;21.170;2022-10-17T12:02:56;15.10;;;4.38;;
37305;SDS011;23193;42.656;21.170;2022-10-17T12:05:33;15.70;;;5.43;;
37305;SDS011;23193;42.656;21.170;2022-10-17T12:08:23;16.20;;;6.32;;
37305;SDS011;23193;42.656;21.170;2022-10-17T12:10:52;13.18;;;5.70;;
37305;SDS011;23193;42.656;21.170;2022-10-17T12:14:09;15.80;;;5.97;;
37305;SDS011;23193;42.656;21.170;2022-10-17T12:16:52;22.35;;;6.82;;
37305;SDS011;23193;42.656;21.170;2022-10-17T12:21:25;12.57;;;4.97;;
37305;SDS011;23193;42.656;21.170;2022-10-17T12:23:52;13.90;;;4.93;;
37305;SDS011;23193;42.656;21.170;2022-10-17T12:26:25;13.35;;;4.03;;
37305;SDS011;23193;42.656;21.170;2022-10-17T12:28:52;12.20;;;4.93;;
37305;SDS011;23193;42.656;21.170;2022-10-17T12:34:03;19.05;;;5.30;;
37305;SDS011;23193;42.656;21.170;2022-10-17T12:49:20;24.73;;;4.97;;
37305;SDS011;23193;42.656;21.170;2022-10-17T12:54:37;9.10;;;5.50;;
37305;SDS011;23193;42.656;21.170;2022-10-17T12:57:06;22.55;;;6.13;;
37305;SDS011;23193;42.656;21.170;2022-10-17T12:59:41;14.75;;;7.10;;
37305;SDS011;23193;42.656;21.170;2022-10-17T13:02:11;6.90;;;3.40;;
37305;SDS011;23193;42.656;21.170;2022-10-17T13:04:41;8.60;;;3.20;;
37305;SDS011;23193;42.656;21.170;2022-10-17T13:07:14;12.52;;;4.07;;
37305;SDS011;23193;42.656;21.170;2022-10-17T13:09:42;7.82;;;3.55;;
37305;SDS011;23193;42.656;21.170;2022-10-17T13:12:16;10.52;;;2.83;;
37305;SDS011;23193;42.656;21.170;2022-10-17T13:14:43;6.97;;;3.05;;
37305;SDS011;23193;42.656;21.170;2022-10-17T13:20:16;7.00;;;4.03;;
37305;SDS011;23193;42.656;21.170;2022-10-17T13:22:43;7.95;;;3.42;;
37305;SDS011;23193;42.656;21.170;2022-10-17T13:25:14;4.30;;;2.50;;
37305;SDS011;23193;42.656;21.170;2022-10-17T13:30:20;4.47;;;1.80;;
37305;SDS011;23193;42.656;21.170;2022-10-17T13:32:46;10.90;;;2.78;;
37305;SDS011;23193;42.656;21.170;2022-10-17T13:35:13;6.00;;;2.83;;
37305;SDS011;23193;42.656;21.170;2022-10-17T13:37:41;7.00;;;2.72;;
37305;SDS011;23193;42.656;21.170;2022-10-17T13:40:18;9.07;;;2.55;;
37305;SDS011;23193;42.656;21.170;2022-10-17T13:42:44;6.15;;;1.98;;
37305;SDS011;23193;42.656;21.170;2022-10-17T13:45:30;11.52;;;2.33;;
37305;SDS011;23193;42.656;21.170;2022-10-17T13:48:00;5.07;;;2.20;;
37305;SDS011;23193;42.656;21.170;2022-10-17T13:58:17;13.35;;;2.78;;
37305;SDS011;23193;42.656;21.170;2022-10-17T14:00:43;13.68;;;2.83;;
37305;SDS011;23193;42.656;21.170;2022-10-17T14:03:10;6.00;;;2.55;;
37305;SDS011;23193;42.656;21.170;2022-10-17T14:05:58;8.55;;;2.47;;
37305;SDS011;23193;42.656;21.170;2022-10-17T14:08:23;3.90;;;2.05;;
37305;SDS011;23193;42.656;21.170;2022-10-17T14:10:49;7.40;;;3.08;;
37305;SDS011;23193;42.656;21.170;2022-10-17T14:13:18;6.88;;;2.45;;
37305;SDS011;23193;42.656;21.170;2022-10-17T14:15:44;7.70;;;2.58;;
37305;SDS011;23193;42.656;21.170;2022-10-17T14:18:16;19.75;;;3.97;;
37305;SDS011;23193;42.656;21.170;2022-10-17T14:20:47;10.40;;;3.67;;
37305;SDS011;23193;42.656;21.170;2022-10-17T14:28:37;12.85;;;3.92;;
37305;SDS011;23193;42.656;21.170;2022-10-17T14:33:37;6.50;;;2.45;;
37305;SDS011;23193;42.656;21.170;2022-10-17T14:36:07;8.82;;;2.65;;
37305;SDS011;23193;42.656;21.170;2022-10-17T14:38:33;11.73;;;3.33;;
37305;SDS011;23193;42.656;21.170;2022-10-17T14:41:05;14.20;;;4.57;;
37305;SDS011;23193;42.656;21.170;2022-10-17T14:43:32;9.35;;;3.97;;
37305;SDS011;23193;42.656;21.170;2022-10-17T14:45:59;20.90;;;3.50;;
37305;SDS011;23193;42.656;21.170;2022-10-17T14:48:25;8.57;;;4.43;;
37305;SDS011;23193;42.656;21.170;2022-10-17T14:51:12;8.75;;;4.53;;
37305;SDS011;23193;42.656;21.170;2022-10-17T14:53:39;18.52;;;10.85;;
37305;SDS011;23193;42.656;21.170;2022-10-17T14:56:21;10.82;;;6.68;;
37305;SDS011;23193;42.656;21.170;2022-10-17T14:58:48;7.47;;;4.78;;
37305;SDS011;23193;42.656;21.170;2022-10-17T15:01:14;7.28;;;4.85;;
37305;SDS011;23193;42.656;21.170;2022-10-17T15:03:40;12.10;;;5.65;;
37305;SDS011;23193;42.656;21.170;2022-10-17T15:06:20;17.13;;;5.05;;
37305;SDS011;23193;42.656;21.170;2022-10-17T15:08:47;22.13;;;6.35;;
37305;SDS011;23193;42.656;21.170;2022-10-17T15:11:13;17.17;;;6.05;;
37305;SDS011;23193;42.656;21.170;2022-10-17T15:13:39;10.18;;;5.43;;
37305;SDS011;23193;42.656;21.170;2022-10-17T15:16:12;9.23;;;5.05;;
37305;SDS011;23193;42.656;21.170;2022-10-17T15:18:40;10.43;;;4.35;;
37305;SDS011;23193;42.656;21.170;2022-10-17T15:21:12;13.13;;;3.85;;
37305;SDS011;23193;42.656;21.170;2022-10-17T15:23:39;8.85;;;4.70;;
37305;SDS011;23193;42.656;21.170;2022-10-17T15:26:39;18.48;;;5.63;;
37305;SDS011;23193;42.656;21.170;2022-10-17T15:28:58;7.28;;;4.28;;
37305;SDS011;23193;42.656;21.170;2022-10-17T15:31:25;15.45;;;4.20;;
37305;SDS011;23193;42.656;21.170;2022-10-17T15:33:51;10.18;;;4.00;;
37305;SDS011;23193;42.656;21.170;2022-10-17T15:38:47;19.25;;;4.78;;
37305;SDS011;23193;42.656;21.170;2022-10-17T15:41:13;6.80;;;4.43;;
37305;SDS011;23193;42.656;21.170;2022-10-17T15:43:39;21.00;;;8.45;;
37305;SDS011;23193;42.656;21.170;2022-10-17T15:46:09;46.47;;;16.50;;
37305;SDS011;23193;42.656;21.170;2022-10-17T15:48:36;45.08;;;18.38;;
37305;SDS011;23193;42.656;21.170;2022-10-17T15:51:02;73.28;;;29.10;;
37305;SDS011;23193;42.656;21.170;2022-10-17T15:53:28;60.40;;;23.95;;
37305;SDS011;23193;42.656;21.170;2022-10-17T15:55:54;40.83;;;16.90;;
37305;SDS011;23193;42.656;21.170;2022-10-17T15:58:21;26.30;;;10.32;;
37305;SDS011;23193;42.656;21.170;2022-10-17T16:00:47;19.80;;;7.63;;
37305;SDS011;23193;42.656;21.170;2022-10-17T16:03:13;20.63;;;4.90;;
37305;SDS011;23193;42.656;21.170;2022-10-17T16:05:39;25.55;;;7.50;;
37305;SDS011;23193;42.656;21.170;2022-10-17T16:08:05;23.20;;;10.48;;
37305;SDS011;23193;42.656;21.170;2022-10-17T16:10:31;23.75;;;11.52;;
37305;SDS011;23193;42.656;21.170;2022-10-17T16:12:57;18.20;;;10.10;;
37305;SDS011;23193;42.656;21.170;2022-10-17T16:15:24;42.60;;;20.83;;
37305;SDS011;23193;42.656;21.170;2022-10-17T16:17:51;43.38;;;21.20;;
37305;SDS011;23193;42.656;21.170;2022-10-17T16:20:17;34.40;;;17.35;;
37305;SDS011;23193;42.656;21.170;2022-10-17T16:22:44;23.58;;;13.07;;
37305;SDS011;23193;42.656;21.170;2022-10-17T16:25:20;43.88;;;17.33;;
37305;SDS011;23193;42.656;21.170;2022-10-17T16:27:47;44.90;;;20.63;;
37305;SDS011;23193;42.656;21.170;2022-10-17T16:30:14;53.03;;;19.15;;
37305;SDS011;23193;42.656;21.170;2022-10-17T16:32:40;43.28;;;14.35;;
37305;SDS011;23193;42.656;21.170;2022-10-17T16:35:06;41.22;;;12.60;;
37305;SDS011;23193;42.656;21.170;2022-10-17T16:37:32;31.17;;;18.25;;
37305;SDS011;23193;42.656;21.170;2022-10-17T16:40:00;38.75;;;16.35;;
37305;SDS011;23193;42.656;21.170;2022-10-17T16:42:26;51.55;;;12.32;;